Terminal Aerodrome Forecast
Issued by NWS Tampa Bay Area, FL

Home | Current Version | Previous Version | Text Only | Print | Product List | Glossary On
Versions: 1 2 3 4 5 6 7 8 9 10 11 12 13 14 15 16 17 18
000
FTUS42 KTBW 281733
TAFSRQ
TAF
KSRQ 281733Z 2818/2918 08012G22KT P6SM VCTS BKN035CB BKN150
     FM290100 08008KT P6SM FEW025 BKN250
     FM291400 09010G18KT P6SM SCT035 BKN150=

USA.gov is the U.S. government's official web portal to all federal, state and local government web resources and services.